ENVD

Vadsø Airport

Vadsø, Norway
METAR ENVD 172150Z 22011KT 9999 SCT012 BKN016 06/04 Q1002
Observed Flight Rules
Oct-17 @ 21:50 UTC (3 hours ago) Marginal Visual Flight Rules
Wind Visibility Clouds
220° at 11 knots 10,000+ meters
  • Scattered at 1,200' AGL
  • Broken at 1,600' AGL
Temperatures Readings
Current 6°C / 43°F
Dewpoint 4°C / 39°F
Humidity 87%
Altimeter 29.59" Hg
Pressure 1002 hPa
Elevation 39
METAR ENVD 172150Z 22011KT 9999 SCT012 BKN016 06/04 Q1002
Observed Flight Rules
Oct-17 @ 21:50 UTC
(3 hours ago)
MVFR
Wind Visibility
220° at 11 knots 10,000+ meters
Clouds
  • Scattered at 1,200' AGL
  • Broken at 1,600' AGL
Temperature Dewpoint
6°C / 43°F 4°C / 39°F
Humidity Altimeter Pressure
87% 29.59" Hg 1002 hPa